createdAt,value
2023-11-25T00:01:49.130Z,100216.00
2023-11-25T00:04:19.776Z,100255.50
2023-11-25T00:06:49.944Z,100193.03
2023-11-25T00:09:22.949Z,100237.81
2023-11-25T00:11:52.800Z,100236.53
2023-11-25T00:14:23.464Z,100246.75
2023-11-25T00:16:53.582Z,100250.34
2023-11-25T00:19:23.548Z,100251.78
2023-11-25T00:21:53.449Z,100256.94
2023-11-25T00:24:26.055Z,100221.59
2023-11-25T00:26:56.134Z,100255.09
2023-11-25T00:29:26.040Z,100186.22
2023-11-25T00:31:58.671Z,100177.97
2023-11-25T00:34:28.715Z,100263.56
2023-11-25T00:36:58.706Z,100231.28
2023-11-25T00:39:31.180Z,100258.03
2023-11-25T00:42:01.391Z,100272.69
2023-11-25T00:44:31.370Z,100215.31
2023-11-25T00:47:01.957Z,100272.75
2023-11-25T00:49:34.144Z,100293.38
2023-11-25T00:52:04.097Z,100285.28
2023-11-25T00:54:37.379Z,100280.81
2023-11-25T00:57:07.420Z,100299.38
2023-11-25T00:59:37.415Z,100278.53
2023-11-25T01:02:07.641Z,100303.44
2023-11-25T01:04:38.610Z,100240.63
2023-11-25T01:07:08.532Z,100314.59
2023-11-25T01:09:41.066Z,100310.59
2023-11-25T01:12:12.191Z,100266.28
2023-11-25T01:14:42.314Z,100317.91
2023-11-25T01:17:12.542Z,100283.34
2023-11-25T01:19:42.770Z,100313.50
2023-11-25T01:22:12.906Z,100302.66
2023-11-25T01:24:46.160Z,100302.81
2023-11-25T01:27:15.993Z,100312.03
2023-11-25T01:29:45.841Z,100301.44
2023-11-25T01:32:15.761Z,100295.41
2023-11-25T01:34:46.382Z,100285.84
2023-11-25T01:37:19.455Z,100300.22
2023-11-25T01:39:52.101Z,100313.84
2023-11-25T01:42:21.959Z,100257.66
2023-11-25T01:44:51.999Z,100248.03
2023-11-25T01:47:21.904Z,100277.22
2023-11-25T01:49:53.481Z,100285.06
2023-11-25T01:52:24.281Z,100289.75
2023-11-25T01:54:57.593Z,100300.22
2023-11-25T01:57:27.609Z,100264.88
2023-11-25T01:59:58.016Z,100307.69
2023-11-25T02:02:31.939Z,100302.66
2023-11-25T02:05:02.033Z,100268.03
2023-11-25T02:07:32.349Z,100299.31
2023-11-25T02:10:06.458Z,100298.22
2023-11-25T02:12:39.353Z,100297.09
2023-11-25T02:15:12.969Z,100298.06
2023-11-25T02:17:45.638Z,100266.31
2023-11-25T02:20:17.018Z,100308.50
2023-11-25T02:22:58.686Z,100294.50
2023-11-25T02:25:28.912Z,100229.72
2023-11-25T02:27:59.793Z,100287.84
2023-11-25T02:30:30.585Z,100285.41
2023-11-25T02:33:01.269Z,100237.19
2023-11-25T02:35:31.331Z,100283.81
2023-11-25T02:38:03.831Z,100302.28
2023-11-25T02:40:33.773Z,100257.72
2023-11-25T02:43:03.750Z,100285.41
2023-11-25T02:45:33.656Z,100206.78
2023-11-25T02:48:05.688Z,100294.75
2023-11-25T02:50:36.777Z,100290.28
2023-11-25T02:53:10.729Z,100293.66
2023-11-25T02:55:41.067Z,100285.50
2023-11-25T02:58:11.559Z,100278.72
2023-11-25T03:00:44.978Z,100188.25
2023-11-25T03:03:24.172Z,100285.91
2023-11-25T03:05:54.569Z,100259.25
2023-11-25T03:08:28.914Z,100284.44
2023-11-25T03:10:58.887Z,100276.91
2023-11-25T03:13:28.947Z,100273.59
2023-11-25T03:15:58.895Z,100275.75
2023-11-25T03:18:29.477Z,100282.72
2023-11-25T03:20:59.316Z,100292.88
2023-11-25T03:23:31.764Z,100212.09
2023-11-25T03:26:01.721Z,100227.25
2023-11-25T03:28:33.355Z,100260.22
2023-11-25T03:31:06.649Z,100276.34
2023-11-25T03:33:36.538Z,100271.00
2023-11-25T03:36:07.199Z,100270.97
2023-11-25T03:38:40.260Z,100238.25
2023-11-25T03:41:10.264Z,100274.97
2023-11-25T03:43:40.263Z,100283.75
2023-11-25T03:46:10.534Z,100267.41
2023-11-25T03:48:40.438Z,100219.84
2023-11-25T03:51:13.129Z,100251.91
2023-11-25T03:53:46.543Z,100250.53
2023-11-25T03:56:17.359Z,100243.97
2023-11-25T03:58:47.618Z,100238.28
2023-11-25T04:01:17.666Z,100173.56
2023-11-25T04:03:47.589Z,100262.84
2023-11-25T04:06:17.759Z,100272.09
2023-11-25T04:08:50.255Z,100253.16
2023-11-25T04:11:20.774Z,100205.44
2023-11-25T04:13:51.470Z,100230.50
2023-11-25T04:16:21.511Z,100230.50
2023-11-25T04:18:51.516Z,100157.69
2023-11-25T04:21:24.331Z,100231.00
2023-11-25T04:23:57.510Z,100181.03
2023-11-25T04:26:27.982Z,100228.06
2023-11-25T04:28:58.009Z,100212.59
2023-11-25T04:31:28.132Z,100223.22
2023-11-25T04:33:58.398Z,100226.03
2023-11-25T04:36:29.745Z,100227.31
2023-11-25T04:39:02.222Z,100221.50
2023-11-25T04:41:32.218Z,100215.94
2023-11-25T04:44:02.069Z,100209.38
2023-11-25T04:46:32.001Z,100109.38
2023-11-25T04:49:01.887Z,100205.78
2023-11-25T04:51:32.819Z,100200.94
2023-11-25T04:54:05.409Z,100195.00
2023-11-25T04:56:35.533Z,100173.63
2023-11-25T04:59:07.958Z,99991.75
2023-11-25T05:01:38.823Z,99999.66
2023-11-25T05:04:09.739Z,100195.38
2023-11-25T05:06:41.328Z,100196.53
2023-11-25T05:09:18.380Z,100194.00
2023-11-25T05:11:48.261Z,100100.47
2023-11-25T05:14:18.543Z,100156.41
2023-11-25T05:16:48.509Z,100181.56
2023-11-25T05:19:18.473Z,100175.06
2023-11-25T05:21:48.358Z,100119.00
2023-11-25T05:24:21.469Z,100135.44
2023-11-25T05:26:51.350Z,100136.38
2023-11-25T05:29:21.839Z,100142.47
2023-11-25T05:31:52.066Z,100123.59
2023-11-25T05:34:22.117Z,100164.88
2023-11-25T05:36:51.974Z,100042.31
2023-11-25T05:39:25.721Z,100116.56
2023-11-25T05:41:56.206Z,100126.72
2023-11-25T05:44:26.987Z,100204.81
2023-11-25T05:46:58.066Z,100199.97
2023-11-25T05:49:27.964Z,100199.91
2023-11-25T05:52:00.815Z,100199.13
2023-11-25T05:54:33.654Z,100170.53
2023-11-25T05:57:03.624Z,99978.09
2023-11-25T05:59:33.502Z,100175.34
2023-11-25T06:02:03.393Z,100169.44
2023-11-25T06:04:33.380Z,100168.75
2023-11-25T06:07:03.368Z,100162.97
2023-11-25T06:09:35.846Z,100141.16
2023-11-25T06:12:05.713Z,100153.63
2023-11-25T06:14:37.595Z,100146.84
2023-11-25T06:17:08.881Z,100117.59
2023-11-25T06:19:38.818Z,100105.44
2023-11-25T06:22:08.689Z,100144.72
2023-11-25T06:24:41.771Z,100147.78
2023-11-25T06:27:11.652Z,100138.19
2023-11-25T06:29:41.575Z,100136.47
2023-11-25T06:32:11.401Z,100079.59
2023-11-25T06:34:41.881Z,100131.34
2023-11-25T06:37:11.988Z,100049.66
2023-11-25T06:39:44.580Z,100101.53
2023-11-25T06:42:14.407Z,100106.47
2023-11-25T06:44:45.448Z,100005.13
2023-11-25T06:47:15.863Z,100113.16
2023-11-25T06:49:49.471Z,100078.41
2023-11-25T06:52:19.369Z,100052.50
2023-11-25T06:54:51.850Z,100129.81
2023-11-25T06:57:21.707Z,100129.94
2023-11-25T06:59:51.565Z,100132.63
2023-11-25T07:02:21.686Z,100111.53
2023-11-25T07:04:51.658Z,100110.91
2023-11-25T07:07:22.151Z,100115.31
2023-11-25T07:09:54.645Z,100149.25
2023-11-25T07:12:24.542Z,100143.09
2023-11-25T07:14:55.592Z,100072.53
2023-11-25T07:17:25.538Z,100121.78
2023-11-25T07:19:55.481Z,100102.16
2023-11-25T07:22:25.377Z,100143.88
2023-11-25T07:24:58.274Z,100138.28
2023-11-25T07:27:28.128Z,100092.41
2023-11-25T07:30:02.483Z,100134.63
2023-11-25T07:32:33.471Z,100108.75
2023-11-25T07:35:07.467Z,100141.50
2023-11-25T07:37:37.828Z,100143.34
2023-11-25T07:40:16.275Z,100103.63
2023-11-25T07:42:50.189Z,100115.19
2023-11-25T07:45:20.639Z,100141.69
2023-11-25T07:47:50.551Z,100153.97
2023-11-25T07:50:20.662Z,100151.34
2023-11-25T07:52:50.601Z,100120.59
2023-11-25T07:55:23.330Z,100081.13
2023-11-25T07:57:53.187Z,100036.03
2023-11-25T08:00:27.100Z,100136.56
2023-11-25T08:02:57.926Z,100115.06
2023-11-25T08:05:29.894Z,100134.34
2023-11-25T08:07:59.875Z,100131.06
2023-11-25T08:10:36.197Z,100130.34
2023-11-25T08:13:06.426Z,100132.31
2023-11-25T08:15:36.298Z,100088.59
2023-11-25T08:18:06.430Z,100132.19
2023-11-25T08:20:36.733Z,100133.28
2023-11-25T08:23:06.582Z,100140.16
2023-11-25T08:25:39.055Z,100145.78
2023-11-25T08:28:09.239Z,100144.63
2023-11-25T08:30:39.070Z,100129.16
2023-11-25T08:33:09.234Z,100081.84
2023-11-25T08:35:40.063Z,100140.38
2023-11-25T08:38:10.484Z,100153.94
2023-11-25T08:40:44.003Z,100066.22
2023-11-25T08:43:15.189Z,100159.88
2023-11-25T08:45:49.198Z,100106.06
2023-11-25T08:48:19.213Z,100143.44
2023-11-25T08:50:49.216Z,100144.31
2023-11-25T08:53:19.065Z,100116.38
2023-11-25T08:55:51.658Z,100148.50
2023-11-25T08:58:21.620Z,100118.63
2023-11-25T09:00:53.049Z,100142.53
2023-11-25T09:03:24.411Z,100154.19
2023-11-25T09:05:54.480Z,100156.50
2023-11-25T09:08:24.345Z,100158.34
2023-11-25T09:10:57.509Z,100120.03
2023-11-25T09:13:27.625Z,100149.31
2023-11-25T09:15:59.273Z,100155.03
2023-11-25T09:18:29.542Z,100153.59
2023-11-25T09:20:59.398Z,100132.66
2023-11-25T09:23:29.252Z,100147.34
2023-11-25T09:26:01.873Z,100136.97
2023-11-25T09:28:31.946Z,100143.66
2023-11-25T09:31:01.911Z,100117.28
2023-11-25T09:33:31.766Z,100105.59
2023-11-25T09:36:01.950Z,100132.38
2023-11-25T09:38:31.824Z,100120.06
2023-11-25T09:41:04.282Z,100118.59
2023-11-25T09:43:34.453Z,100109.19
2023-11-25T09:46:05.290Z,100108.38
2023-11-25T09:48:35.392Z,100111.72
2023-11-25T09:51:07.314Z,100120.06
2023-11-25T09:53:40.529Z,100141.38
2023-11-25T09:56:14.999Z,100134.13
2023-11-25T09:58:44.898Z,100130.13
2023-11-25T10:01:15.661Z,100130.22
2023-11-25T10:03:47.006Z,100110.47
2023-11-25T10:06:17.038Z,100125.94
2023-11-25T10:08:46.892Z,100122.97
2023-11-25T10:11:23.326Z,100129.09
2023-11-25T10:13:53.540Z,100104.03
2023-11-25T10:16:30.602Z,100107.19
2023-11-25T10:19:00.572Z,100087.44
2023-11-25T10:21:30.819Z,100112.91
2023-11-25T10:24:10.438Z,100054.78
2023-11-25T10:26:45.198Z,100101.81
2023-11-25T10:29:17.218Z,100115.38
2023-11-25T10:31:48.087Z,100100.31
2023-11-25T10:34:18.056Z,100054.13
2023-11-25T10:36:48.580Z,100070.66
2023-11-25T10:39:18.852Z,100070.84
2023-11-25T10:41:55.940Z,100074.47
2023-11-25T10:44:26.095Z,100076.41
2023-11-25T10:46:57.568Z,100098.13
2023-11-25T10:49:28.867Z,100084.47
2023-11-25T10:52:02.091Z,100102.69
2023-11-25T10:54:35.075Z,100098.59
2023-11-25T10:57:12.065Z,100049.16
2023-11-25T10:59:43.100Z,99997.63
2023-11-25T11:02:21.571Z,100080.56
2023-11-25T11:04:58.971Z,100084.13
2023-11-25T11:07:32.027Z,100074.38
2023-11-25T11:10:05.811Z,100057.41
2023-11-25T11:12:47.302Z,99978.09
2023-11-25T11:15:19.861Z,100039.97
2023-11-25T11:17:59.175Z,100079.75
2023-11-25T11:20:34.065Z,100008.13
2023-11-25T11:23:04.084Z,100090.72
2023-11-25T11:25:39.967Z,99986.16
2023-11-25T11:28:23.993Z,100064.97
2023-11-25T11:31:37.487Z,100009.44
2023-11-25T11:34:08.313Z,100010.25
2023-11-25T11:36:39.235Z,100091.94
2023-11-25T11:39:12.926Z,100091.34
2023-11-25T11:41:43.759Z,100070.84
2023-11-25T11:44:17.391Z,100094.91
2023-11-25T11:46:47.605Z,100103.22
2023-11-25T11:49:20.184Z,100098.06
2023-11-25T11:52:06.078Z,99990.63
2023-11-25T11:54:36.096Z,100070.56
2023-11-25T11:57:08.862Z,100100.59
2023-11-25T12:00:03.200Z,100058.66
2023-11-25T12:02:38.714Z,100085.59
2023-11-25T12:05:09.321Z,100078.28
2023-11-25T12:07:39.622Z,100115.94
2023-11-25T12:10:11.724Z,100081.66
2023-11-25T12:12:43.671Z,100117.81
2023-11-25T12:15:19.068Z,100121.13
2023-11-25T12:17:49.533Z,100099.78
2023-11-25T12:20:20.215Z,100124.59
2023-11-25T12:22:50.328Z,100123.06
2023-11-25T12:25:20.736Z,100107.75
2023-11-25T12:27:55.962Z,100080.06
2023-11-25T12:30:29.377Z,100100.63
2023-11-25T12:32:59.657Z,100094.28
2023-11-25T12:35:29.648Z,100135.88
2023-11-25T12:38:07.998Z,100136.47
2023-11-25T12:40:46.678Z,100054.44
2023-11-25T12:43:18.315Z,100112.00
2023-11-25T12:45:50.999Z,100127.50
2023-11-25T12:48:33.937Z,100122.25
2023-11-25T12:51:08.188Z,100106.56
2023-11-25T12:53:38.772Z,100125.53
2023-11-25T12:56:18.665Z,100126.66
2023-11-25T12:58:49.404Z,100131.88
2023-11-25T13:01:27.405Z,100088.97
2023-11-25T13:04:05.642Z,100132.50
2023-11-25T13:06:48.954Z,100105.66
2023-11-25T13:09:21.353Z,100093.00
2023-11-25T13:11:51.384Z,100102.72
2023-11-25T13:14:22.478Z,100094.53
2023-11-25T13:16:55.208Z,100122.13
2023-11-25T13:19:27.372Z,100151.41
2023-11-25T13:21:57.349Z,100104.47
2023-11-25T13:24:27.234Z,100156.88
2023-11-25T13:26:57.179Z,100156.72
2023-11-25T13:29:27.131Z,100141.72
2023-11-25T13:32:00.393Z,100115.22
2023-11-25T13:34:30.285Z,100142.47
2023-11-25T13:37:00.308Z,100135.97
2023-11-25T13:39:32.524Z,100155.69
2023-11-25T13:42:02.429Z,100127.81
2023-11-25T13:44:32.420Z,100163.63
2023-11-25T13:47:05.206Z,100171.03
2023-11-25T13:49:35.460Z,100164.00
2023-11-25T13:52:05.574Z,100178.97
2023-11-25T13:54:35.854Z,100178.84
2023-11-25T13:57:05.832Z,100158.94
2023-11-25T13:59:35.818Z,100177.69
2023-11-25T14:02:09.023Z,100169.31
2023-11-25T14:04:41.542Z,100184.84
2023-11-25T14:07:11.670Z,100197.75
2023-11-25T14:09:42.529Z,100200.34
2023-11-25T14:12:12.592Z,100206.16
2023-11-25T14:14:42.864Z,100156.94
2023-11-25T14:17:17.769Z,100206.09
2023-11-25T14:19:50.241Z,100184.19
2023-11-25T14:22:20.599Z,100219.41
2023-11-25T14:24:51.257Z,100211.69
2023-11-25T14:27:21.409Z,100211.75
2023-11-25T14:29:51.489Z,100179.75
2023-11-25T14:32:24.969Z,100224.09
2023-11-25T14:34:55.113Z,100208.00
2023-11-25T14:37:26.019Z,100187.09
2023-11-25T14:40:00.892Z,100229.88
2023-11-25T14:42:35.405Z,100217.34
2023-11-25T14:45:06.136Z,100187.53
2023-11-25T14:47:39.379Z,100178.75
2023-11-25T14:50:12.848Z,100182.66
2023-11-25T14:52:43.014Z,100252.91
2023-11-25T14:55:13.539Z,100251.25
2023-11-25T14:57:44.142Z,100195.91
2023-11-25T15:00:17.610Z,100241.56
2023-11-25T15:02:50.446Z,100263.97
2023-11-25T15:05:20.583Z,100272.06
2023-11-25T15:07:50.754Z,100254.53
2023-11-25T15:10:26.789Z,100257.84
2023-11-25T15:12:57.477Z,100233.47
2023-11-25T15:15:28.009Z,100280.16
2023-11-25T15:18:00.815Z,100264.75
2023-11-25T15:20:30.913Z,100271.38
2023-11-25T15:23:03.168Z,100236.66
2023-11-25T15:25:34.971Z,100152.78
2023-11-25T15:28:07.391Z,100252.28
2023-11-25T15:30:38.766Z,100303.47
2023-11-25T15:33:13.265Z,100252.63
2023-11-25T15:35:44.197Z,100200.50
2023-11-25T15:38:18.788Z,100298.78
2023-11-25T15:40:49.740Z,100187.25
2023-11-25T15:43:20.597Z,100227.47
2023-11-25T15:45:51.494Z,100281.94
2023-11-25T15:48:25.178Z,100275.91
2023-11-25T15:50:57.673Z,100233.44
2023-11-25T15:53:30.515Z,100267.09
2023-11-25T15:56:01.876Z,100267.94
2023-11-25T15:58:36.676Z,100262.25
2023-11-25T16:01:07.912Z,100252.84
2023-11-25T16:03:43.461Z,100313.59
2023-11-25T16:06:17.109Z,100322.34
2023-11-25T16:08:49.990Z,100321.56
2023-11-25T16:11:21.067Z,100204.38
2023-11-25T16:13:54.689Z,100242.38
2023-11-25T16:16:26.622Z,100190.25
2023-11-25T16:19:00.652Z,100253.44
2023-11-25T16:21:30.922Z,100293.16
2023-11-25T16:24:01.627Z,100297.44
2023-11-25T16:26:31.861Z,100261.25
2023-11-25T16:29:01.896Z,100344.66
2023-11-25T16:31:32.259Z,100345.28
2023-11-25T16:34:05.052Z,100318.56
2023-11-25T16:36:35.756Z,100334.59
2023-11-25T16:39:06.939Z,100345.84
2023-11-25T16:41:37.216Z,100361.78
2023-11-25T16:44:08.041Z,100361.88
2023-11-25T16:46:38.527Z,100372.56
2023-11-25T16:49:13.288Z,100387.66
2023-11-25T16:51:43.754Z,100382.59
2023-11-25T16:54:13.771Z,100344.16
2023-11-25T16:56:53.825Z,100280.47
2023-11-25T16:59:24.631Z,100204.59
2023-11-25T17:01:56.172Z,100163.88
2023-11-25T17:04:32.378Z,100388.75
2023-11-25T17:07:06.595Z,100265.91
2023-11-25T17:09:46.802Z,100398.84
2023-11-25T17:12:17.552Z,100400.84
2023-11-25T17:14:52.104Z,100402.47
2023-11-25T17:17:33.640Z,100405.84
2023-11-25T17:20:08.268Z,100335.72
2023-11-25T17:22:43.406Z,100414.28
2023-11-25T17:25:14.748Z,100285.31
2023-11-25T17:27:48.267Z,100018.16
2023-11-25T17:30:19.157Z,100247.16
2023-11-25T17:32:49.869Z,100293.16
2023-11-25T17:35:23.500Z,100374.84
2023-11-25T17:37:56.802Z,100435.13
2023-11-25T17:40:28.269Z,100377.47
2023-11-25T17:42:59.173Z,100449.28
2023-11-25T17:45:31.002Z,100428.06
2023-11-25T17:48:03.260Z,100324.38
2023-11-25T17:50:36.917Z,100488.88
2023-11-25T17:53:14.078Z,100233.00
2023-11-25T17:55:48.042Z,100335.97
2023-11-25T17:58:21.785Z,100289.78
2023-11-25T18:00:56.498Z,100387.38
2023-11-25T18:03:27.687Z,100178.53
2023-11-25T18:06:07.069Z,100414.97
2023-11-25T18:08:40.638Z,100333.44
2023-11-25T18:11:13.080Z,100385.47
2023-11-25T18:13:45.425Z,100337.63
2023-11-25T18:16:20.507Z,100448.13
2023-11-25T18:18:54.079Z,100438.63
2023-11-25T18:21:33.017Z,100368.25
2023-11-25T18:24:07.332Z,100488.72
2023-11-25T18:26:40.807Z,100478.53
2023-11-25T18:29:12.125Z,100492.06
2023-11-25T18:31:46.230Z,100424.31
2023-11-25T18:34:19.180Z,100506.00
2023-11-25T18:36:54.364Z,100564.72
2023-11-25T18:39:41.565Z,100534.13
2023-11-25T18:42:15.542Z,100552.97
2023-11-25T18:44:48.481Z,100483.66
2023-11-25T18:47:28.973Z,100345.22
2023-11-25T18:50:02.674Z,100565.25
2023-11-25T18:52:36.180Z,100408.34
2023-11-25T18:55:23.324Z,100412.91
2023-11-25T18:57:57.394Z,100379.13
2023-11-25T19:00:28.557Z,100556.19
2023-11-25T19:02:59.670Z,100532.06
2023-11-25T19:05:37.870Z,100582.94
2023-11-25T19:08:12.864Z,100400.16
2023-11-25T19:10:47.010Z,100470.91
2023-11-25T19:13:20.371Z,100349.38
2023-11-25T19:15:51.095Z,100431.94
2023-11-25T19:18:23.093Z,100338.22
2023-11-25T19:20:56.777Z,100612.88
2023-11-25T19:23:33.251Z,100629.88
2023-11-25T19:26:04.869Z,100577.00
2023-11-25T19:28:42.628Z,100622.72
2023-11-25T19:31:14.244Z,100480.00
2023-11-25T19:33:46.913Z,100575.25
2023-11-25T19:36:23.381Z,100552.03
2023-11-25T19:38:58.663Z,100588.97
2023-11-25T19:41:30.169Z,100493.25
2023-11-25T19:44:01.498Z,100556.38
2023-11-25T19:46:34.290Z,100537.66
2023-11-25T19:49:05.973Z,100651.81
2023-11-25T19:51:36.876Z,100588.00
2023-11-25T19:54:10.588Z,100454.09
2023-11-25T19:56:43.090Z,100535.09
2023-11-25T19:59:13.856Z,100525.94
2023-11-25T20:01:44.675Z,100651.47
2023-11-25T20:04:18.179Z,100472.97
2023-11-25T20:06:59.735Z,100378.53
2023-11-25T20:09:34.528Z,100534.44
2023-11-25T20:12:08.118Z,100564.78
2023-11-25T20:14:39.097Z,100615.94
2023-11-25T20:17:10.014Z,100554.41
2023-11-25T20:19:44.556Z,100240.09
2023-11-25T20:22:16.352Z,100675.72
2023-11-25T20:24:49.649Z,100598.63
2023-11-25T20:27:20.793Z,100661.97
2023-11-25T20:29:51.446Z,100613.16
2023-11-25T20:32:24.642Z,100498.91
2023-11-25T20:34:55.369Z,100497.09
2023-11-25T20:37:26.066Z,100522.84
2023-11-25T20:39:59.981Z,100565.28
2023-11-25T20:42:34.631Z,100637.25
2023-11-25T20:45:05.460Z,100555.75
2023-11-25T20:47:36.668Z,100327.59
2023-11-25T20:50:08.395Z,100590.69
2023-11-25T20:52:40.205Z,100643.78
2023-11-25T20:55:14.077Z,100565.47
2023-11-25T20:57:44.990Z,100514.97
2023-11-25T21:00:17.026Z,100673.22
2023-11-25T21:02:50.255Z,100473.09
2023-11-25T21:05:20.970Z,100499.75
2023-11-25T21:07:51.601Z,100727.81
2023-11-25T21:10:26.090Z,100735.88
2023-11-25T21:12:56.762Z,100472.44
2023-11-25T21:15:29.428Z,100642.94
2023-11-25T21:18:00.003Z,100651.00
2023-11-25T21:20:33.102Z,100714.31
2023-11-25T21:23:06.010Z,100487.28
2023-11-25T21:25:38.797Z,100760.22
2023-11-25T21:28:09.676Z,100729.03
2023-11-25T21:30:40.249Z,100763.84
2023-11-25T21:33:10.297Z,100764.72
2023-11-25T21:35:40.322Z,100729.69
2023-11-25T21:38:10.356Z,100766.44
2023-11-25T21:40:42.950Z,100775.75
2023-11-25T21:43:12.838Z,100744.13
2023-11-25T21:45:42.850Z,100774.72
2023-11-25T21:48:12.726Z,100785.41
2023-11-25T21:50:42.591Z,100764.84
2023-11-25T21:53:12.551Z,100563.13
2023-11-25T21:55:45.067Z,100745.16
2023-11-25T21:58:14.946Z,100741.00
2023-11-25T22:00:44.777Z,100737.44
2023-11-25T22:03:16.818Z,100732.31
2023-11-25T22:05:47.020Z,100761.63
2023-11-25T22:08:16.930Z,100762.13
2023-11-25T22:10:49.652Z,100793.72
2023-11-25T22:13:19.532Z,100779.66
2023-11-25T22:15:49.516Z,100730.34
2023-11-25T22:18:19.360Z,100725.13
2023-11-25T22:20:49.313Z,100812.75
2023-11-25T22:23:19.369Z,100803.94
2023-11-25T22:26:05.370Z,100771.66
2023-11-25T22:28:35.510Z,100725.84
2023-11-25T22:31:05.354Z,100802.34
2023-11-25T22:33:35.344Z,100800.03
2023-11-25T22:36:05.557Z,100798.75
2023-11-25T22:38:35.369Z,100799.88
2023-11-25T22:41:09.434Z,100795.00
2023-11-25T22:43:39.325Z,100802.81
2023-11-25T22:46:09.515Z,100782.38
2023-11-25T22:48:37.073Z,100764.00
2023-11-25T22:51:07.454Z,100768.00
2023-11-25T22:53:37.341Z,100757.84
2023-11-25T22:56:10.921Z,100718.28
2023-11-25T22:58:40.874Z,100710.16
2023-11-25T23:01:16.172Z,100768.00
2023-11-25T23:03:46.878Z,100804.72
2023-11-25T23:06:16.738Z,100807.22
2023-11-25T23:08:46.652Z,100802.94
2023-11-25T23:11:19.233Z,100755.28
2023-11-25T23:13:49.145Z,100777.16
2023-11-25T23:16:19.107Z,100712.81
2023-11-25T23:18:48.986Z,100774.94
2023-11-25T23:21:19.658Z,100723.34
2023-11-25T23:23:49.523Z,100763.34
2023-11-25T23:26:22.312Z,100769.53
2023-11-25T23:28:52.614Z,100727.69
2023-11-25T23:31:22.612Z,100810.88
2023-11-25T23:33:52.502Z,100718.94
2023-11-25T23:36:22.846Z,100698.09
2023-11-25T23:38:52.653Z,100810.06
2023-11-25T23:41:25.252Z,100809.69
2023-11-25T23:43:55.187Z,100800.69
2023-11-25T23:46:25.251Z,100672.31
2023-11-25T23:48:55.100Z,100748.75
2023-11-25T23:51:24.952Z,100740.84
2023-11-25T23:53:54.825Z,100729.28
2023-11-25T23:56:27.311Z,100776.16
2023-11-25T23:58:57.439Z,100808.81
